createdAt,value
2022-09-23T00:01:24.833Z,65.28
2022-09-23T00:04:07.022Z,65.28
2022-09-23T00:06:34.693Z,65.32
2022-09-23T00:09:02.292Z,65.28
2022-09-23T00:11:29.915Z,65.25
2022-09-23T00:13:59.717Z,65.30
2022-09-23T00:16:34.266Z,65.26
2022-09-23T00:19:03.761Z,65.35
2022-09-23T00:21:31.432Z,65.30
2022-09-23T00:24:03.110Z,65.40
2022-09-23T00:26:30.744Z,65.37
2022-09-23T00:29:01.464Z,65.38
2022-09-23T00:31:29.196Z,65.40
2022-09-23T00:33:59.216Z,65.37
2022-09-23T00:36:28.900Z,65.47
2022-09-23T00:38:56.913Z,65.61
2022-09-23T00:41:25.186Z,65.71
2022-09-23T00:44:00.781Z,65.84
2022-09-23T00:46:44.478Z,65.72
2022-09-23T00:49:29.701Z,65.70
2022-09-23T00:52:06.754Z,65.69
2022-09-23T00:54:35.605Z,65.73
2022-09-23T00:57:05.261Z,65.79
2022-09-23T00:59:33.533Z,65.78
2022-09-23T01:02:03.067Z,65.85
2022-09-23T01:04:31.628Z,65.98
2022-09-23T01:06:59.261Z,65.98
2022-09-23T01:09:26.881Z,66.03
2022-09-23T01:12:03.014Z,66.06
2022-09-23T01:15:08.408Z,65.97
2022-09-23T01:17:55.002Z,65.88
2022-09-23T01:20:42.602Z,65.88
2022-09-23T01:23:44.853Z,65.97
2022-09-23T01:26:34.272Z,65.97
2022-09-23T01:29:33.753Z,65.99
2022-09-23T01:38:32.723Z,65.96
2022-09-23T01:44:36.930Z,66.14
2022-09-23T01:47:11.605Z,66.21
2022-09-23T01:49:48.494Z,66.33
2022-09-23T01:52:24.486Z,66.38
2022-09-23T01:57:41.339Z,66.30
2022-09-23T02:00:13.799Z,66.47
2022-09-23T02:02:49.568Z,66.41
2022-09-23T02:05:33.374Z,66.26
2022-09-23T02:08:10.955Z,66.40
2022-09-23T02:10:48.743Z,66.45
2022-09-23T02:13:29.843Z,66.28
2022-09-23T02:16:02.180Z,66.28
2022-09-23T02:18:52.088Z,66.47
2022-09-23T02:21:25.018Z,66.55
2022-09-23T02:24:00.483Z,66.49
2022-09-23T02:26:33.821Z,66.50
2022-09-23T02:29:08.085Z,66.50
2022-09-23T02:31:58.263Z,66.43
2022-09-23T02:35:06.014Z,66.47
2022-09-23T02:38:31.369Z,66.37
2022-09-23T02:41:05.580Z,66.48
2022-09-23T02:43:51.238Z,66.34
2022-09-23T02:46:20.265Z,66.34
2022-09-23T02:48:55.598Z,66.52
2022-09-23T02:51:28.733Z,66.42
2022-09-23T02:53:57.752Z,66.40
2022-09-23T02:56:25.480Z,66.44
2022-09-23T02:58:55.002Z,66.33
2022-09-23T03:01:56.439Z,66.61
2022-09-23T03:04:43.213Z,66.74
2022-09-23T03:07:14.396Z,66.59
2022-09-23T03:09:54.364Z,66.56
2022-09-23T03:12:41.098Z,66.48
2022-09-23T03:18:20.399Z,66.45
2022-09-23T03:21:09.420Z,66.57
2022-09-23T03:23:40.496Z,66.63
2022-09-23T03:26:16.404Z,66.72
2022-09-23T03:28:45.366Z,66.69
2022-09-23T03:31:15.181Z,66.56
2022-09-23T03:33:48.474Z,66.45
2022-09-23T03:36:38.501Z,66.42
2022-09-23T03:39:10.876Z,66.41
2022-09-23T03:41:57.016Z,66.28
2022-09-23T03:44:24.647Z,66.40
2022-09-23T03:46:52.146Z,66.50
2022-09-23T03:49:35.424Z,66.65
2022-09-23T03:52:07.726Z,66.65
2022-09-23T03:54:36.711Z,66.80
2022-09-23T03:57:04.477Z,66.76
2022-09-23T03:59:32.657Z,66.75
2022-09-23T04:02:00.692Z,66.68
2022-09-23T04:04:29.721Z,66.43
2022-09-23T04:06:57.462Z,66.44
2022-09-23T04:09:25.333Z,66.40
2022-09-23T04:11:53.509Z,66.59
2022-09-23T04:14:22.348Z,66.64
2022-09-23T04:16:50.588Z,66.68
2022-09-23T04:19:18.759Z,66.72
2022-09-23T04:21:46.650Z,66.74
2022-09-23T04:24:14.938Z,66.80
2022-09-23T04:26:43.083Z,66.83
2022-09-23T04:29:11.930Z,66.95
2022-09-23T04:31:39.787Z,66.80
2022-09-23T04:34:09.212Z,66.88
2022-09-23T04:36:36.852Z,66.88
2022-09-23T04:39:05.674Z,66.89
2022-09-23T04:41:33.391Z,66.86
2022-09-23T04:44:01.246Z,66.72
2022-09-23T04:46:28.948Z,66.87
2022-09-23T04:48:57.048Z,66.91
2022-09-23T04:51:26.186Z,66.80
2022-09-23T04:53:59.028Z,66.89
2022-09-23T04:56:29.543Z,66.90
2022-09-23T04:58:58.273Z,66.96
2022-09-23T05:01:28.297Z,66.98
2022-09-23T05:03:58.501Z,66.89
2022-09-23T05:06:26.106Z,66.87
2022-09-23T05:08:55.505Z,67.04
2022-09-23T05:11:24.492Z,67.02
2022-09-23T05:13:54.042Z,67.06
2022-09-23T05:16:23.717Z,67.14
2022-09-23T05:18:52.272Z,67.26
2022-09-23T05:21:23.885Z,67.23
2022-09-23T05:23:55.823Z,67.14
2022-09-23T05:26:25.899Z,67.16
2022-09-23T05:28:54.661Z,67.24
2022-09-23T05:31:30.820Z,67.34
2022-09-23T05:34:03.703Z,67.46
2022-09-23T05:36:37.976Z,67.34
2022-09-23T05:39:08.236Z,67.33
2022-09-23T05:41:36.525Z,67.25
2022-09-23T05:44:07.539Z,67.28
2022-09-23T05:46:38.520Z,67.26
2022-09-23T05:49:07.882Z,67.32
2022-09-23T05:51:45.960Z,67.39
2022-09-23T05:54:23.588Z,67.42
2022-09-23T05:56:51.368Z,67.37
2022-09-23T05:59:21.801Z,67.40
2022-09-23T06:01:56.302Z,67.37
2022-09-23T06:04:26.497Z,67.24
2022-09-23T06:06:54.522Z,67.13
2022-09-23T06:09:25.111Z,67.27
2022-09-23T06:11:52.716Z,67.29
2022-09-23T06:14:20.330Z,67.41
2022-09-23T06:16:48.045Z,67.67
2022-09-23T06:19:15.881Z,67.72
2022-09-23T06:21:44.045Z,67.85
2022-09-23T06:24:16.016Z,67.86
2022-09-23T06:26:47.837Z,67.90
2022-09-23T06:29:18.407Z,67.96
2022-09-23T06:31:46.170Z,67.90
2022-09-23T06:34:15.991Z,67.58
2022-09-23T06:36:48.538Z,67.57
2022-09-23T06:39:49.646Z,67.55
2022-09-23T06:42:20.003Z,67.57
2022-09-23T06:45:10.879Z,67.78
2022-09-23T06:47:42.168Z,67.74
2022-09-23T06:50:16.467Z,67.90
2022-09-23T06:52:51.549Z,67.81
2022-09-23T06:55:19.315Z,67.83
2022-09-23T06:57:47.292Z,67.89
2022-09-23T07:00:32.901Z,67.96
2022-09-23T07:03:30.327Z,68.07
2022-09-23T07:07:18.494Z,68.21
2022-09-23T07:12:43.581Z,68.35
2022-09-23T07:15:12.155Z,68.33
2022-09-23T07:17:42.848Z,68.18
2022-09-23T07:20:11.484Z,68.22
2022-09-23T07:22:39.493Z,68.34
2022-09-23T07:25:07.625Z,68.41
2022-09-23T07:27:35.344Z,68.37
2022-09-23T07:30:03.479Z,68.39
2022-09-23T07:32:42.491Z,68.26
2022-09-23T07:35:14.986Z,68.38
2022-09-23T07:37:42.966Z,68.46
2022-09-23T07:40:10.758Z,68.42
2022-09-23T07:42:40.748Z,68.32
2022-09-23T07:45:09.494Z,68.23
2022-09-23T07:47:39.359Z,68.29
2022-09-23T07:50:11.558Z,68.39
2022-09-23T07:52:39.524Z,68.39
2022-09-23T07:55:07.613Z,68.46
2022-09-23T07:57:35.407Z,68.74
2022-09-23T08:00:04.329Z,68.83
2022-09-23T08:02:32.222Z,68.84
2022-09-23T08:05:00.675Z,68.83
2022-09-23T08:07:29.143Z,68.51
2022-09-23T08:09:57.028Z,68.56
2022-09-23T08:12:24.857Z,68.52
2022-09-23T08:14:52.646Z,68.40
2022-09-23T08:17:20.408Z,68.43
2022-09-23T08:19:48.160Z,68.29
2022-09-23T08:22:16.469Z,68.14
2022-09-23T08:24:44.257Z,67.89
2022-09-23T08:27:12.778Z,67.87
2022-09-23T08:29:41.634Z,67.82
2022-09-23T08:32:09.781Z,67.68
2022-09-23T08:34:37.934Z,67.59
2022-09-23T08:37:11.011Z,67.30
2022-09-23T08:39:40.007Z,66.98
2022-09-23T08:42:37.283Z,66.87
2022-09-23T08:48:58.404Z,66.33
2022-09-23T08:51:39.171Z,66.19
2022-09-23T08:57:12.297Z,65.60
2022-09-23T09:00:15.524Z,65.44
2022-09-23T09:02:43.480Z,65.20
2022-09-23T09:05:26.488Z,65.13
2022-09-23T09:08:23.558Z,65.00
2022-09-23T09:10:55.183Z,64.94
2022-09-23T09:13:45.105Z,64.49
2022-09-23T09:19:43.631Z,63.40
2022-09-23T09:22:42.134Z,63.12
2022-09-23T09:25:42.586Z,63.08
2022-09-23T09:28:33.171Z,63.09
2022-09-23T09:34:01.022Z,63.16
2022-09-23T09:37:07.696Z,63.00
2022-09-23T09:39:37.359Z,62.21
2022-09-23T09:42:16.730Z,62.23
2022-09-23T09:47:51.817Z,61.01
2022-09-23T09:50:38.792Z,60.23
2022-09-23T09:53:25.638Z,60.38
2022-09-23T09:56:12.986Z,60.82
2022-09-23T09:58:44.081Z,61.05
2022-09-23T10:01:20.940Z,60.30
2022-09-23T10:03:59.886Z,60.24
2022-09-23T10:06:32.596Z,59.16
2022-09-23T10:09:22.133Z,59.04
2022-09-23T10:14:47.109Z,59.52
2022-09-23T10:17:24.529Z,58.88
2022-09-23T10:20:01.024Z,58.20
2022-09-23T10:22:35.380Z,58.02
2022-09-23T10:29:24.421Z,57.81
2022-09-23T10:35:26.716Z,55.24
2022-09-23T10:38:12.281Z,55.75
2022-09-23T10:41:01.620Z,55.88
2022-09-23T10:44:11.468Z,55.33
2022-09-23T10:49:43.201Z,55.09
2022-09-23T10:52:46.449Z,55.72
2022-09-23T10:55:45.757Z,55.11
2022-09-23T11:01:52.885Z,53.72
2022-09-23T11:07:33.826Z,53.57
2022-09-23T11:10:45.112Z,53.08
2022-09-23T11:13:32.428Z,53.50
2022-09-23T11:16:19.198Z,52.91
2022-09-23T11:19:24.075Z,52.74
2022-09-23T11:22:36.726Z,52.27
2022-09-23T11:25:07.659Z,51.84
2022-09-23T11:27:56.707Z,52.01
2022-09-23T11:30:44.663Z,52.00
2022-09-23T11:33:54.612Z,52.22
2022-09-23T11:46:27.559Z,51.61
2022-09-23T11:59:04.712Z,51.83
2022-09-23T12:01:47.851Z,51.65
2022-09-23T12:05:16.640Z,50.92
2022-09-23T12:08:15.494Z,51.39
2022-09-23T12:14:18.608Z,49.64
2022-09-23T12:20:00.823Z,49.42
2022-09-23T12:23:06.606Z,49.30
2022-09-23T12:28:56.763Z,49.38
2022-09-23T12:34:34.660Z,49.66
2022-09-23T12:39:54.115Z,49.97
2022-09-23T12:42:26.663Z,49.90
2022-09-23T12:45:35.187Z,49.68
2022-09-23T12:49:03.266Z,49.58
2022-09-23T12:51:35.017Z,49.68
2022-09-23T12:54:05.810Z,49.59
2022-09-23T12:56:36.563Z,49.44
2022-09-23T12:59:28.076Z,49.52
2022-09-23T13:01:56.878Z,49.65
2022-09-23T13:04:57.522Z,50.07
2022-09-23T13:07:34.228Z,50.32
2022-09-23T13:10:17.054Z,49.83
2022-09-23T13:12:46.660Z,50.55
2022-09-23T13:15:24.591Z,50.86
2022-09-23T13:17:52.448Z,50.23
2022-09-23T13:20:20.608Z,49.50
2022-09-23T13:22:54.138Z,48.77
2022-09-23T13:25:33.395Z,48.35
2022-09-23T13:28:03.817Z,48.59
2022-09-23T13:30:31.495Z,48.28
2022-09-23T13:33:10.386Z,48.31
2022-09-23T13:35:46.143Z,48.44
2022-09-23T13:38:32.393Z,48.19
2022-09-23T13:41:05.856Z,48.45
2022-09-23T13:43:45.213Z,48.26
2022-09-23T13:46:18.810Z,48.09
2022-09-23T13:48:50.688Z,48.05
2022-09-23T13:51:33.716Z,48.23
2022-09-23T13:54:05.898Z,47.86
2022-09-23T13:56:38.692Z,48.06
2022-09-23T13:59:25.845Z,47.52
2022-09-23T14:02:16.266Z,47.68
2022-09-23T14:04:44.854Z,47.91
2022-09-23T14:07:15.602Z,48.04
2022-09-23T14:09:47.610Z,47.76
2022-09-23T14:12:22.056Z,47.21
2022-09-23T14:14:51.987Z,46.44
2022-09-23T14:17:25.476Z,46.25
2022-09-23T14:19:53.172Z,45.68
2022-09-23T14:22:29.136Z,45.18
2022-09-23T14:24:58.492Z,45.12
2022-09-23T14:27:33.853Z,44.79
2022-09-23T14:30:03.729Z,45.02
2022-09-23T14:32:35.222Z,45.32
2022-09-23T14:35:03.822Z,45.13
2022-09-23T14:37:52.085Z,45.28
2022-09-23T14:40:24.930Z,45.03
2022-09-23T14:43:26.833Z,44.98
2022-09-23T14:45:57.671Z,45.39
2022-09-23T14:48:37.359Z,46.57
2022-09-23T14:51:12.017Z,45.87
2022-09-23T14:53:53.188Z,45.05
2022-09-23T14:56:23.193Z,44.81
2022-09-23T14:58:55.427Z,44.90
2022-09-23T15:01:34.308Z,44.65
2022-09-23T15:04:28.165Z,44.90
2022-09-23T15:07:17.783Z,45.13
2022-09-23T15:09:46.504Z,45.29
2022-09-23T15:12:26.551Z,45.77
2022-09-23T15:14:58.166Z,45.66
2022-09-23T15:17:43.234Z,46.19
2022-09-23T15:20:16.841Z,47.44
2022-09-23T15:22:46.276Z,47.49
2022-09-23T15:25:35.812Z,47.18
2022-09-23T15:28:18.270Z,46.70
2022-09-23T15:30:45.932Z,46.00
2022-09-23T15:33:17.764Z,45.43
2022-09-23T15:35:48.955Z,44.97
2022-09-23T15:38:17.795Z,44.40
2022-09-23T15:40:45.965Z,43.22
2022-09-23T15:43:21.135Z,42.66
2022-09-23T15:46:07.829Z,42.20
2022-09-23T15:48:39.488Z,42.52
2022-09-23T15:51:09.955Z,42.97
2022-09-23T15:53:39.428Z,43.23
2022-09-23T15:56:08.153Z,43.26
2022-09-23T15:58:35.960Z,43.26
2022-09-23T16:01:03.755Z,42.92
2022-09-23T16:03:31.696Z,42.65
2022-09-23T16:06:03.208Z,42.58
2022-09-23T16:08:32.788Z,42.71
2022-09-23T16:11:02.985Z,42.93
2022-09-23T16:13:33.337Z,43.00
2022-09-23T16:16:02.105Z,43.25
2022-09-23T16:18:30.306Z,43.28
2022-09-23T16:20:59.452Z,43.40
2022-09-23T16:23:37.482Z,43.83
2022-09-23T16:26:27.121Z,44.18
2022-09-23T16:28:56.869Z,44.57
2022-09-23T16:31:31.623Z,44.87
2022-09-23T16:34:02.513Z,44.88
2022-09-23T16:36:33.207Z,45.23
2022-09-23T16:39:06.783Z,45.51
2022-09-23T16:41:35.037Z,45.88
2022-09-23T16:44:04.814Z,46.03
2022-09-23T16:46:33.719Z,46.36
2022-09-23T16:49:01.604Z,46.50
2022-09-23T16:51:41.177Z,46.78
2022-09-23T16:54:13.187Z,47.00
2022-09-23T16:56:45.142Z,47.20
2022-09-23T16:59:14.074Z,47.46
2022-09-23T17:01:59.997Z,47.82
2022-09-23T17:04:28.451Z,47.92
2022-09-23T17:06:56.640Z,48.08
2022-09-23T17:09:28.974Z,48.41
2022-09-23T17:12:16.663Z,48.45
2022-09-23T17:14:44.392Z,48.82
2022-09-23T17:17:12.111Z,48.95
2022-09-23T17:19:41.471Z,49.11
2022-09-23T17:22:09.967Z,49.45
2022-09-23T17:24:37.911Z,49.60
2022-09-23T17:27:05.609Z,49.72
2022-09-23T17:29:33.338Z,50.03
2022-09-23T17:32:01.411Z,50.20
2022-09-23T17:34:29.271Z,50.19
2022-09-23T17:36:57.026Z,50.33
2022-09-23T17:39:24.905Z,50.43
2022-09-23T17:41:58.284Z,50.53
2022-09-23T17:44:27.066Z,50.77
2022-09-23T17:46:54.753Z,50.59
2022-09-23T17:49:24.373Z,50.83
2022-09-23T17:51:52.135Z,50.97
2022-09-23T17:54:20.047Z,51.03
2022-09-23T17:56:47.762Z,51.13
2022-09-23T17:59:15.474Z,51.17
2022-09-23T18:01:44.830Z,51.38
2022-09-23T18:04:12.966Z,51.61
2022-09-23T18:06:40.679Z,51.71
2022-09-23T18:09:08.776Z,51.89
2022-09-23T18:11:42.569Z,51.80
2022-09-23T18:14:22.324Z,52.10
2022-09-23T18:16:53.682Z,52.02
2022-09-23T18:19:23.463Z,52.07
2022-09-23T18:21:55.944Z,52.23
2022-09-23T18:24:32.483Z,52.28
2022-09-23T18:27:02.175Z,52.32
2022-09-23T18:29:30.449Z,52.48
2022-09-23T18:31:59.370Z,52.46
2022-09-23T18:34:28.530Z,52.60
2022-09-23T18:36:56.316Z,52.70
2022-09-23T18:39:26.578Z,52.88
2022-09-23T18:41:54.817Z,53.00
2022-09-23T18:44:23.450Z,52.96
2022-09-23T18:46:51.344Z,53.12
2022-09-23T18:49:35.043Z,53.06
2022-09-23T18:52:02.799Z,53.04
2022-09-23T18:54:31.443Z,53.22
2022-09-23T18:56:59.323Z,53.43
2022-09-23T18:59:29.800Z,53.41
2022-09-23T19:01:59.105Z,53.58
2022-09-23T19:04:29.162Z,53.87
2022-09-23T19:06:57.929Z,53.96
2022-09-23T19:09:26.097Z,53.99
2022-09-23T19:11:53.996Z,54.00
2022-09-23T19:14:22.242Z,54.09
2022-09-23T19:16:50.907Z,54.12
2022-09-23T19:19:18.682Z,54.04
2022-09-23T19:21:46.413Z,54.06
2022-09-23T19:24:19.752Z,54.12
2022-09-23T19:26:48.466Z,54.19
2022-09-23T19:29:21.912Z,54.33
2022-09-23T19:31:50.969Z,54.51
2022-09-23T19:34:36.012Z,54.53
2022-09-23T19:37:05.262Z,54.62
2022-09-23T19:39:40.376Z,54.69
2022-09-23T19:42:08.136Z,54.62
2022-09-23T19:44:37.819Z,54.78
2022-09-23T19:47:06.052Z,54.93
2022-09-23T19:49:33.914Z,55.03
2022-09-23T19:52:01.921Z,55.23
2022-09-23T19:54:29.828Z,55.31
2022-09-23T19:56:57.557Z,55.50
2022-09-23T19:59:26.605Z,55.45
2022-09-23T20:02:03.096Z,55.47
2022-09-23T20:04:31.721Z,55.55
2022-09-23T20:06:59.638Z,55.66
2022-09-23T20:09:29.011Z,55.66
2022-09-23T20:12:01.248Z,55.77
2022-09-23T20:14:34.301Z,55.64
2022-09-23T20:17:03.001Z,55.76
2022-09-23T20:19:30.962Z,55.83
2022-09-23T20:22:14.642Z,55.77
2022-09-23T20:24:42.450Z,55.88
2022-09-23T20:27:10.849Z,55.69
2022-09-23T20:29:38.687Z,55.78
2022-09-23T20:32:06.500Z,55.90
2022-09-23T20:34:34.430Z,55.83
2022-09-23T20:37:02.229Z,55.96
2022-09-23T20:39:33.565Z,56.11
2022-09-23T20:42:03.717Z,56.11
2022-09-23T20:44:32.222Z,56.06
2022-09-23T20:47:00.512Z,56.23
2022-09-23T20:49:32.955Z,56.40
2022-09-23T20:52:04.482Z,56.50
2022-09-23T20:54:32.230Z,56.44
2022-09-23T20:57:02.245Z,56.44
2022-09-23T20:59:30.128Z,56.33
2022-09-23T21:01:58.766Z,56.46
2022-09-23T21:04:28.856Z,56.66
2022-09-23T21:06:58.259Z,56.74
2022-09-23T21:09:27.317Z,56.90
2022-09-23T21:11:57.206Z,57.01
2022-09-23T21:14:25.327Z,56.95
2022-09-23T21:16:55.004Z,57.04
2022-09-23T21:19:24.347Z,57.04
2022-09-23T21:21:52.013Z,57.16
2022-09-23T21:27:08.710Z,57.25
2022-09-23T21:29:36.483Z,57.23
2022-09-23T21:32:10.252Z,57.32
2022-09-23T21:34:38.561Z,57.26
2022-09-23T21:37:06.389Z,57.35
2022-09-23T21:39:34.117Z,57.35
2022-09-23T21:42:01.904Z,57.45
2022-09-23T21:44:29.569Z,57.39
2022-09-23T21:46:57.574Z,57.53
2022-09-23T21:49:25.336Z,57.67
2022-09-23T21:51:55.101Z,57.63
2022-09-23T21:54:22.999Z,57.74
2022-09-23T21:56:50.751Z,57.70
2022-09-23T21:59:18.489Z,57.69
2022-09-23T22:01:49.311Z,57.87
2022-09-23T22:04:23.568Z,57.59
2022-09-23T22:06:51.447Z,57.76
2022-09-23T22:09:21.382Z,57.82
2022-09-23T22:12:05.074Z,57.86
2022-09-23T22:14:33.516Z,57.95
2022-09-23T22:17:03.832Z,58.00
2022-09-23T22:19:44.198Z,58.10
2022-09-23T22:22:16.584Z,58.04
2022-09-23T22:24:47.104Z,58.10
2022-09-23T22:27:18.241Z,58.05
2022-09-23T22:30:02.213Z,58.05
2022-09-23T22:32:46.074Z,58.21
2022-09-23T22:35:37.747Z,58.16
2022-09-23T22:38:05.587Z,58.24
2022-09-23T22:40:35.941Z,58.45
2022-09-23T22:43:03.856Z,58.50
2022-09-23T22:46:01.459Z,58.58
2022-09-23T22:48:32.481Z,58.65
2022-09-23T22:51:14.300Z,58.71
2022-09-23T22:53:43.737Z,58.80
2022-09-23T22:56:11.959Z,58.80
2022-09-23T22:58:46.271Z,58.69
2022-09-23T23:01:14.227Z,58.64
2022-09-23T23:03:44.584Z,58.83
2022-09-23T23:06:12.565Z,58.78
2022-09-23T23:08:40.589Z,58.75
2022-09-23T23:11:10.185Z,58.81
2022-09-23T23:13:43.060Z,58.79
2022-09-23T23:16:13.093Z,58.74
2022-09-23T23:18:45.538Z,58.72
2022-09-23T23:21:21.584Z,58.85
2022-09-23T23:23:53.797Z,58.96
2022-09-23T23:26:27.071Z,58.88
2022-09-23T23:28:57.039Z,59.04
2022-09-23T23:31:27.733Z,59.17
2022-09-23T23:33:55.776Z,59.09
2022-09-23T23:36:26.674Z,59.20
2022-09-23T23:38:54.788Z,59.38
2022-09-23T23:41:23.279Z,59.41
2022-09-23T23:43:59.269Z,59.45
2022-09-23T23:46:30.725Z,59.54
2022-09-23T23:48:59.752Z,59.57
2022-09-23T23:51:27.928Z,59.57
2022-09-23T23:53:59.142Z,59.63
2022-09-23T23:56:27.623Z,59.57
2022-09-23T23:59:03.061Z,59.56
